createdAt,value
2022-12-11T00:02:22.062Z,15.82
2022-12-11T00:04:50.433Z,11.27
2022-12-11T00:07:18.761Z,9.27
2022-12-11T00:09:47.077Z,16.73
2022-12-11T00:12:15.376Z,15.73
2022-12-11T00:14:44.350Z,14.02
2022-12-11T00:17:14.189Z,12.93
2022-12-11T00:19:42.706Z,12.60
2022-12-11T00:22:11.072Z,9.88
2022-12-11T00:24:39.419Z,14.48
2022-12-11T00:27:08.111Z,12.50
2022-12-11T00:29:36.608Z,16.15
2022-12-11T00:32:05.002Z,17.75
2022-12-11T00:34:36.050Z,14.65
2022-12-11T00:37:04.528Z,15.20
2022-12-11T00:39:32.860Z,19.00
2022-12-11T00:42:01.198Z,11.57
2022-12-11T00:44:29.578Z,8.52
2022-12-11T00:46:57.984Z,13.15
2022-12-11T00:49:26.365Z,14.85
2022-12-11T00:51:56.278Z,17.77
2022-12-11T00:54:24.652Z,16.08
2022-12-11T00:56:52.976Z,16.95
2022-12-11T00:59:21.501Z,17.95
2022-12-11T01:01:49.876Z,22.88
2022-12-11T01:04:18.288Z,18.45
2022-12-11T01:06:46.626Z,19.55
2022-12-11T01:09:34.000Z,20.45
2022-12-11T01:12:02.373Z,20.40
2022-12-11T01:14:30.748Z,26.15
2022-12-11T01:16:59.111Z,21.73
2022-12-11T01:19:27.436Z,23.67
2022-12-11T01:21:55.763Z,21.45
2022-12-11T01:24:25.452Z,18.27
2022-12-11T01:26:53.804Z,25.48
2022-12-11T01:29:22.337Z,22.23
2022-12-11T01:31:50.645Z,20.98
2022-12-11T01:34:19.008Z,19.73
2022-12-11T01:36:47.336Z,27.45
2022-12-11T01:39:15.871Z,31.42
2022-12-11T01:41:45.549Z,29.02
2022-12-11T01:44:47.110Z,26.27
2022-12-11T01:47:16.804Z,23.42
2022-12-11T01:49:45.130Z,21.98
2022-12-11T01:52:17.607Z,23.25
2022-12-11T01:54:46.005Z,16.33
2022-12-11T01:57:16.900Z,20.27
2022-12-11T01:59:47.898Z,22.85
2022-12-11T02:02:20.874Z,25.83
2022-12-11T02:04:49.712Z,21.80
2022-12-11T02:07:18.049Z,32.22
2022-12-11T02:09:48.260Z,26.75
2022-12-11T02:12:26.075Z,32.85
2022-12-11T02:15:00.385Z,26.92
2022-12-11T02:17:34.939Z,31.33
2022-12-11T02:20:08.282Z,22.90
2022-12-11T02:22:53.822Z,17.85
2022-12-11T02:25:25.307Z,15.02
2022-12-11T02:28:06.735Z,26.63
2022-12-11T02:30:37.224Z,29.15
2022-12-11T02:33:05.504Z,18.60
2022-12-11T02:35:35.695Z,27.33
2022-12-11T02:38:06.898Z,27.95
2022-12-11T02:40:36.830Z,30.73
2022-12-11T02:43:08.776Z,16.40
2022-12-11T02:45:38.658Z,17.23
2022-12-11T02:48:08.467Z,28.83
2022-12-11T02:50:38.024Z,27.83
2022-12-11T02:53:08.162Z,29.25
2022-12-11T02:55:37.486Z,25.08
2022-12-11T02:58:09.625Z,33.53
2022-12-11T03:00:37.906Z,31.75
2022-12-11T03:03:06.306Z,17.13
2022-12-11T03:05:34.648Z,21.95
2022-12-11T03:08:03.438Z,27.52
2022-12-11T03:10:31.848Z,32.10
2022-12-11T03:13:00.909Z,20.75
2022-12-11T03:15:35.620Z,15.05
2022-12-11T03:18:08.703Z,16.75
2022-12-11T03:20:40.750Z,29.70
2022-12-11T03:23:14.741Z,14.20
2022-12-11T03:25:47.756Z,24.23
2022-12-11T03:28:19.502Z,27.02
2022-12-11T03:30:51.090Z,31.52
2022-12-11T03:33:25.159Z,29.75
2022-12-11T03:35:56.129Z,27.35
2022-12-11T03:38:27.056Z,37.58
2022-12-11T03:40:58.335Z,29.20
2022-12-11T03:43:27.868Z,30.15
2022-12-11T03:45:58.251Z,27.55
2022-12-11T03:48:38.049Z,17.65
2022-12-11T03:51:07.965Z,26.52
2022-12-11T03:53:37.382Z,17.55
2022-12-11T03:56:07.682Z,29.98
2022-12-11T03:58:36.053Z,30.85
2022-12-11T04:01:05.853Z,24.63
2022-12-11T04:03:34.251Z,29.55
2022-12-11T04:06:02.576Z,30.10
2022-12-11T04:08:30.990Z,20.60
2022-12-11T04:11:13.091Z,30.63
2022-12-11T04:13:42.182Z,25.83
2022-12-11T04:16:10.905Z,12.68
2022-12-11T04:18:56.729Z,28.52
2022-12-11T04:21:41.454Z,19.20
2022-12-11T04:24:16.544Z,20.00
2022-12-11T04:26:45.485Z,26.58
2022-12-11T04:29:14.237Z,33.22
2022-12-11T04:31:44.040Z,36.17
2022-12-11T04:34:12.422Z,18.40
2022-12-11T04:36:40.764Z,20.55
2022-12-11T04:39:09.140Z,30.30
2022-12-11T04:41:39.024Z,34.80
2022-12-11T04:44:07.305Z,20.10
2022-12-11T04:46:36.037Z,33.08
2022-12-11T04:49:05.829Z,19.65
2022-12-11T04:51:34.113Z,35.45
2022-12-11T04:54:02.480Z,30.67
2022-12-11T04:56:30.819Z,21.02
2022-12-11T04:58:59.103Z,16.25
2022-12-11T05:01:27.676Z,24.48
2022-12-11T05:03:56.356Z,40.83
2022-12-11T05:06:26.222Z,41.30
2022-12-11T05:08:54.934Z,26.45
2022-12-11T05:11:23.251Z,27.88
2022-12-11T05:13:51.568Z,31.92
2022-12-11T05:16:19.901Z,48.22
2022-12-11T05:18:48.642Z,39.03
2022-12-11T05:21:17.330Z,32.80
2022-12-11T05:23:47.156Z,42.60
2022-12-11T05:26:17.186Z,32.83
2022-12-11T05:28:45.889Z,41.25
2022-12-11T05:31:15.753Z,37.38
2022-12-11T05:33:48.756Z,28.65
2022-12-11T05:36:24.422Z,26.67
2022-12-11T05:38:58.152Z,39.13
2022-12-11T05:41:28.250Z,20.05
2022-12-11T05:43:57.477Z,27.33
2022-12-11T05:46:27.503Z,34.72
2022-12-11T05:48:57.521Z,19.60
2022-12-11T05:51:26.336Z,24.33
2022-12-11T05:53:57.277Z,33.60
2022-12-11T05:56:27.416Z,24.70
2022-12-11T05:58:56.255Z,25.92
2022-12-11T06:01:29.014Z,28.65
2022-12-11T06:03:57.800Z,28.90
2022-12-11T06:06:27.128Z,20.45
2022-12-11T06:08:58.269Z,33.20
2022-12-11T06:11:27.226Z,36.72
2022-12-11T06:13:55.902Z,32.45
2022-12-11T06:16:24.735Z,30.13
2022-12-11T06:18:57.868Z,22.58
2022-12-11T06:21:28.442Z,38.25
2022-12-11T06:24:01.215Z,25.55
2022-12-11T06:26:30.173Z,18.92
2022-12-11T06:28:58.498Z,35.80
2022-12-11T06:31:26.823Z,18.27
2022-12-11T06:33:55.191Z,27.10
2022-12-11T06:36:25.047Z,26.95
2022-12-11T06:38:54.190Z,17.88
2022-12-11T06:41:24.119Z,22.23
2022-12-11T06:43:52.608Z,18.13
2022-12-11T06:46:21.673Z,28.45
2022-12-11T06:48:50.623Z,28.13
2022-12-11T06:51:20.996Z,27.65
2022-12-11T06:53:53.170Z,26.40
2022-12-11T06:56:23.616Z,20.35
2022-12-11T06:58:52.180Z,24.00
2022-12-11T07:01:22.091Z,28.95
2022-12-11T07:03:51.004Z,33.30
2022-12-11T07:06:20.261Z,31.95
2022-12-11T07:08:48.676Z,26.02
2022-12-11T07:11:18.964Z,21.77
2022-12-11T07:13:48.788Z,22.08
2022-12-11T07:16:18.438Z,36.70
2022-12-11T07:18:50.634Z,25.92
2022-12-11T07:21:20.217Z,31.65
2022-12-11T07:23:49.184Z,17.70
2022-12-11T07:26:19.615Z,26.67
2022-12-11T07:28:49.531Z,28.73
2022-12-11T07:31:22.049Z,36.13
2022-12-11T07:33:54.734Z,29.58
2022-12-11T07:36:24.486Z,29.25
2022-12-11T07:38:54.279Z,31.90
2022-12-11T07:41:25.420Z,31.60
2022-12-11T07:43:59.965Z,25.85
2022-12-11T07:46:30.991Z,25.83
2022-12-11T07:49:03.501Z,18.98
2022-12-11T07:51:33.598Z,20.65
2022-12-11T07:54:06.504Z,21.48
2022-12-11T07:56:35.748Z,29.25
2022-12-11T07:59:06.549Z,27.08
2022-12-11T08:01:36.897Z,12.38
2022-12-11T08:04:06.227Z,13.88
2022-12-11T08:06:36.038Z,21.55
2022-12-11T08:09:07.123Z,24.40
2022-12-11T08:11:36.244Z,24.95
2022-12-11T08:14:08.471Z,21.15
2022-12-11T08:16:43.204Z,22.27
2022-12-11T08:21:40.577Z,22.83
2022-12-11T08:24:10.153Z,22.83
2022-12-11T08:26:38.627Z,24.92
2022-12-11T08:29:08.367Z,18.00
2022-12-11T08:31:37.548Z,13.68
2022-12-11T08:34:05.987Z,22.13
2022-12-11T08:36:35.425Z,20.00
2022-12-11T08:39:04.493Z,21.35
2022-12-11T08:41:33.257Z,22.40
2022-12-11T08:47:03.378Z,22.60
2022-12-11T08:49:34.564Z,12.30
2022-12-11T08:52:04.781Z,23.15
2022-12-11T08:54:33.408Z,24.15
2022-12-11T08:57:01.735Z,20.33
2022-12-11T08:59:30.101Z,20.17
2022-12-11T09:02:01.312Z,16.63
2022-12-11T09:04:29.663Z,25.83
2022-12-11T09:06:57.975Z,26.42
2022-12-11T09:09:26.337Z,26.27
2022-12-11T09:11:54.746Z,23.30
2022-12-11T09:14:23.286Z,24.63
2022-12-11T09:16:51.660Z,22.00
2022-12-11T09:19:21.392Z,21.08
2022-12-11T09:21:49.878Z,13.20
2022-12-11T09:24:25.128Z,15.43
2022-12-11T09:26:54.739Z,15.70
2022-12-11T09:29:26.296Z,20.48
2022-12-11T09:31:54.653Z,24.75
2022-12-11T09:34:29.240Z,23.50
2022-12-11T09:36:58.795Z,20.08
2022-12-11T09:39:27.138Z,21.73
2022-12-11T09:42:01.700Z,16.42
2022-12-11T09:47:02.825Z,20.40
2022-12-11T09:49:58.844Z,23.88
2022-12-11T09:52:37.301Z,24.85
2022-12-11T09:55:16.681Z,24.42
2022-12-11T09:57:53.165Z,22.42
2022-12-11T10:04:01.276Z,25.77
2022-12-11T10:13:27.974Z,20.77
2022-12-11T10:23:09.263Z,22.73
2022-12-11T10:31:35.803Z,23.63
2022-12-11T10:34:07.821Z,27.33
2022-12-11T10:36:40.615Z,14.82
2022-12-11T10:39:17.542Z,21.92
2022-12-11T10:41:51.997Z,22.90
2022-12-11T10:44:23.514Z,21.88
2022-12-11T10:47:03.975Z,22.77
2022-12-11T10:49:35.668Z,22.00
2022-12-11T10:52:11.990Z,15.93
2022-12-11T10:54:57.453Z,17.87
2022-12-11T10:57:38.706Z,15.88
2022-12-11T11:00:36.770Z,14.88
2022-12-11T11:03:24.996Z,17.02
2022-12-11T11:06:07.899Z,26.17
2022-12-11T11:08:45.061Z,17.00
2022-12-11T11:11:39.290Z,16.63
2022-12-11T11:14:27.953Z,20.80
2022-12-11T11:16:57.863Z,19.17
2022-12-11T11:19:31.663Z,20.63
2022-12-11T11:22:03.713Z,29.57
2022-12-11T11:24:37.109Z,25.23
2022-12-11T11:27:17.741Z,24.90
2022-12-11T11:29:53.243Z,16.90
2022-12-11T11:32:24.400Z,13.82
2022-12-11T11:34:54.014Z,15.18
2022-12-11T11:37:38.027Z,19.33
2022-12-11T11:40:21.385Z,11.15
2022-12-11T11:43:08.982Z,17.63
2022-12-11T11:45:43.784Z,20.70
2022-12-11T11:51:48.164Z,17.30
2022-12-11T11:54:34.962Z,20.02
2022-12-11T11:57:18.619Z,13.85
2022-12-11T11:59:52.118Z,17.60
2022-12-11T12:02:23.997Z,28.25
2022-12-11T12:05:00.473Z,19.85
2022-12-11T12:16:54.599Z,17.30
2022-12-11T12:23:38.786Z,28.55
2022-12-11T12:27:50.610Z,19.90
2022-12-11T12:30:22.973Z,20.65
2022-12-11T12:33:05.409Z,24.35
2022-12-11T12:35:37.380Z,19.13
2022-12-11T12:38:12.966Z,19.13
2022-12-11T12:40:51.313Z,25.73
2022-12-11T12:43:37.409Z,13.05
2022-12-11T12:46:13.073Z,20.38
2022-12-11T12:48:44.028Z,17.48
2022-12-11T12:51:15.305Z,17.80
2022-12-11T12:53:49.287Z,18.25
2022-12-11T12:56:17.969Z,11.27
2022-12-11T12:58:47.429Z,12.25
2022-12-11T13:01:19.431Z,12.25
2022-12-11T13:03:55.844Z,8.68
2022-12-11T13:06:35.685Z,16.58
2022-12-11T13:09:20.911Z,11.98
2022-12-11T13:14:29.790Z,10.30
2022-12-11T13:17:26.492Z,11.50
2022-12-11T13:20:18.006Z,11.77
2022-12-11T13:22:52.095Z,13.02
2022-12-11T13:25:28.504Z,11.18
2022-12-11T13:28:22.165Z,11.45
2022-12-11T13:34:20.192Z,12.00
2022-12-11T13:36:55.540Z,7.72
2022-12-11T13:42:21.959Z,10.38
2022-12-11T13:44:58.313Z,10.48
2022-12-11T13:49:57.346Z,9.07
2022-12-11T13:52:28.720Z,9.68
2022-12-11T13:54:59.367Z,8.48
2022-12-11T13:57:29.576Z,9.07
2022-12-11T13:59:59.612Z,10.65
2022-12-11T14:02:30.485Z,15.15
2022-12-11T14:05:00.877Z,11.90
2022-12-11T14:07:31.348Z,14.68
2022-12-11T14:10:03.716Z,13.52
2022-12-11T14:12:34.312Z,12.30
2022-12-11T14:15:08.303Z,8.27
2022-12-11T14:17:37.976Z,7.82
2022-12-11T14:20:08.686Z,10.18
2022-12-11T14:22:38.973Z,11.30
2022-12-11T14:25:23.046Z,11.70
2022-12-11T14:27:54.623Z,12.10
2022-12-11T14:30:24.478Z,7.25
2022-12-11T14:32:53.611Z,9.38
2022-12-11T14:35:27.247Z,7.00
2022-12-11T14:37:56.355Z,16.40
2022-12-11T14:40:37.150Z,9.60
2022-12-11T14:43:10.165Z,10.52
2022-12-11T14:45:40.299Z,7.95
2022-12-11T14:48:13.638Z,8.48
2022-12-11T14:50:47.527Z,11.63
2022-12-11T14:53:18.464Z,9.50
2022-12-11T14:55:48.652Z,10.73
2022-12-11T14:58:21.273Z,10.38
2022-12-11T15:00:58.666Z,14.80
2022-12-11T15:03:33.860Z,7.03
2022-12-11T15:06:03.446Z,11.15
2022-12-11T15:08:33.260Z,9.45
2022-12-11T15:11:08.450Z,11.85
2022-12-11T15:13:40.555Z,13.73
2022-12-11T15:16:10.333Z,13.65
2022-12-11T15:18:40.521Z,9.13
2022-12-11T15:21:11.397Z,7.97
2022-12-11T15:23:51.032Z,12.15
2022-12-11T15:26:23.035Z,11.40
2022-12-11T15:29:03.314Z,11.00
2022-12-11T15:31:36.317Z,15.43
2022-12-11T15:34:05.117Z,7.90
2022-12-11T15:36:35.623Z,8.18
2022-12-11T15:39:13.632Z,9.90
2022-12-11T15:44:47.304Z,9.13
2022-12-11T15:47:22.056Z,14.38
2022-12-11T15:49:50.645Z,10.63
2022-12-11T15:52:24.252Z,16.70
2022-12-11T15:54:55.105Z,13.18
2022-12-11T15:57:27.110Z,13.07
2022-12-11T15:59:57.357Z,14.82
2022-12-11T16:02:40.411Z,10.88
2022-12-11T16:05:10.668Z,8.88
2022-12-11T16:07:41.691Z,13.05
2022-12-11T16:10:16.264Z,8.23
2022-12-11T16:12:45.484Z,9.60
2022-12-11T16:15:23.535Z,13.27
2022-12-11T16:18:01.813Z,11.48
2022-12-11T16:20:31.086Z,7.80
2022-12-11T16:23:01.121Z,9.70
2022-12-11T16:25:40.527Z,9.75
2022-12-11T16:28:10.386Z,10.18
2022-12-11T16:30:43.689Z,16.60
2022-12-11T16:33:13.642Z,9.70
2022-12-11T16:35:43.499Z,10.23
2022-12-11T16:38:15.535Z,5.03
2022-12-11T16:40:44.219Z,11.85
2022-12-11T16:43:12.834Z,12.68
2022-12-11T16:45:44.737Z,12.27
2022-12-11T16:48:15.601Z,7.82
2022-12-11T16:51:02.491Z,13.57
2022-12-11T16:53:31.218Z,6.80
2022-12-11T16:55:59.752Z,11.30
2022-12-11T16:58:31.366Z,10.25
2022-12-11T17:01:04.962Z,9.50
2022-12-11T17:03:36.406Z,10.45
2022-12-11T17:06:18.178Z,9.77
2022-12-11T17:08:53.814Z,9.60
2022-12-11T17:11:27.758Z,8.00
2022-12-11T17:14:15.377Z,8.00
2022-12-11T17:16:48.336Z,7.80
2022-12-11T17:19:28.563Z,8.85
2022-12-11T17:22:00.225Z,10.73
2022-12-11T17:24:34.547Z,9.45
2022-12-11T17:27:03.001Z,8.60
2022-12-11T17:29:34.515Z,6.53
2022-12-11T17:32:04.472Z,7.03
2022-12-11T17:34:38.372Z,7.30
2022-12-11T17:37:10.984Z,8.50
2022-12-11T17:39:40.006Z,7.88
2022-12-11T17:42:10.603Z,8.40
2022-12-11T17:50:12.874Z,5.80
2022-12-11T17:52:44.285Z,9.73
2022-12-11T17:55:13.495Z,8.77
2022-12-11T17:57:44.720Z,5.32
2022-12-11T18:00:17.944Z,5.07
2022-12-11T18:02:53.469Z,8.18
2022-12-11T18:05:26.287Z,11.00
2022-12-11T18:08:00.398Z,7.32
2022-12-11T18:10:35.185Z,5.28
2022-12-11T18:15:38.104Z,8.43
2022-12-11T18:18:08.991Z,6.03
2022-12-11T18:20:38.170Z,5.78
2022-12-11T18:23:11.600Z,7.03
2022-12-11T18:25:40.244Z,5.05
2022-12-11T18:28:08.823Z,4.03
2022-12-11T18:30:39.772Z,4.60
2022-12-11T18:33:09.720Z,6.53
2022-12-11T18:35:41.602Z,5.50
2022-12-11T18:38:16.863Z,5.00
2022-12-11T18:40:47.269Z,3.63
2022-12-11T18:43:30.142Z,4.95
2022-12-11T18:46:05.644Z,4.13
2022-12-11T18:48:36.757Z,6.03
2022-12-11T18:51:08.442Z,4.28
2022-12-11T18:53:39.297Z,3.60
2022-12-11T18:56:12.429Z,4.78
2022-12-11T18:58:41.273Z,2.65
2022-12-11T19:01:16.374Z,4.65
2022-12-11T19:03:54.468Z,3.67
2022-12-11T19:06:28.678Z,6.60
2022-12-11T19:09:01.034Z,5.50
2022-12-11T19:11:42.211Z,4.20
2022-12-11T19:14:12.732Z,5.95
2022-12-11T19:16:47.041Z,3.22
2022-12-11T19:19:20.883Z,5.85
2022-12-11T19:21:56.971Z,4.20
2022-12-11T19:24:29.610Z,3.53
2022-12-11T19:30:09.049Z,4.18
2022-12-11T19:38:30.153Z,2.55
2022-12-11T19:41:03.445Z,2.65
2022-12-11T19:43:33.008Z,3.38
2022-12-11T19:46:01.961Z,2.60
2022-12-11T19:48:30.525Z,2.25
2022-12-11T19:51:08.266Z,2.72
2022-12-11T19:53:37.956Z,2.92
2022-12-11T19:56:09.366Z,4.07
2022-12-11T19:58:39.314Z,4.57
2022-12-11T20:01:08.577Z,2.05
2022-12-11T20:03:37.526Z,5.20
2022-12-11T20:06:10.219Z,5.47
2022-12-11T20:08:46.314Z,6.25
2022-12-11T20:11:18.721Z,4.55
2022-12-11T20:13:47.620Z,6.38
2022-12-11T20:16:16.870Z,5.88
2022-12-11T20:18:46.365Z,10.13
2022-12-11T20:21:21.879Z,4.18
2022-12-11T20:23:50.395Z,5.00
2022-12-11T20:26:21.776Z,3.13
2022-12-11T20:28:52.130Z,3.03
2022-12-11T20:31:25.319Z,5.97
2022-12-11T20:33:55.167Z,3.85
2022-12-11T20:36:25.656Z,7.18
2022-12-11T20:38:54.217Z,4.28
2022-12-11T20:41:24.627Z,5.13
2022-12-11T20:43:54.431Z,4.55
2022-12-11T20:46:25.237Z,5.93
2022-12-11T20:48:54.321Z,6.07
2022-12-11T20:51:26.593Z,4.47
2022-12-11T20:53:59.259Z,6.13
2022-12-11T20:56:30.064Z,5.22
2022-12-11T20:59:03.452Z,5.47
2022-12-11T21:01:39.033Z,5.75
2022-12-11T21:04:11.892Z,7.72
2022-12-11T21:06:44.930Z,6.22
2022-12-11T21:09:31.052Z,6.18
2022-12-11T21:12:05.601Z,4.90
2022-12-11T21:14:36.140Z,12.67
2022-12-11T21:17:09.634Z,7.15
2022-12-11T21:19:44.096Z,9.52
2022-12-11T21:22:19.808Z,7.78
2022-12-11T21:24:50.832Z,9.68
2022-12-11T21:27:26.029Z,8.63
2022-12-11T21:30:09.081Z,10.43
2022-12-11T21:32:44.301Z,11.38
2022-12-11T21:35:16.606Z,11.43
2022-12-11T21:37:50.499Z,12.85
2022-12-11T21:40:19.304Z,10.40
2022-12-11T21:42:47.754Z,10.38
2022-12-11T21:45:59.923Z,13.55
2022-12-11T21:48:08.811Z,16.08
2022-12-11T21:50:48.435Z,19.23
2022-12-11T21:53:23.451Z,19.33
2022-12-11T21:55:55.762Z,17.88
2022-12-11T21:58:35.416Z,31.08
2022-12-11T22:01:19.567Z,23.13
2022-12-11T22:03:50.998Z,20.40
2022-12-11T22:06:20.493Z,21.52
2022-12-11T22:08:51.471Z,23.17
2022-12-11T22:11:25.023Z,18.67
2022-12-11T22:14:01.527Z,23.83
2022-12-11T22:16:37.743Z,23.17
2022-12-11T22:19:11.212Z,19.83
2022-12-11T22:21:50.084Z,27.60
2022-12-11T22:24:28.985Z,21.08
2022-12-11T22:26:58.696Z,26.63
2022-12-11T22:29:33.224Z,20.92
2022-12-11T22:32:02.042Z,26.20
2022-12-11T22:34:34.088Z,15.02
2022-12-11T22:37:06.043Z,26.73
2022-12-11T22:42:42.371Z,28.90
2022-12-11T22:45:28.919Z,32.38
2022-12-11T22:47:58.167Z,28.95
2022-12-11T22:50:29.491Z,34.05
2022-12-11T22:52:58.077Z,35.13
2022-12-11T22:55:28.492Z,33.20
2022-12-11T22:57:57.312Z,24.95
2022-12-11T23:00:26.200Z,27.15
2022-12-11T23:02:57.334Z,31.05
2022-12-11T23:05:26.209Z,32.92
2022-12-11T23:07:56.199Z,33.28
2022-12-11T23:10:30.892Z,31.35
2022-12-11T23:13:04.416Z,30.15
2022-12-11T23:15:33.514Z,30.52
2022-12-11T23:18:02.578Z,30.63
2022-12-11T23:20:31.388Z,30.48
2022-12-11T23:23:02.935Z,28.08
2022-12-11T23:25:45.679Z,25.98
2022-12-11T23:28:23.727Z,27.27
2022-12-11T23:30:55.405Z,31.63
2022-12-11T23:33:32.060Z,35.83
2022-12-11T23:36:01.268Z,28.58
2022-12-11T23:38:30.445Z,28.33
2022-12-11T23:41:01.810Z,30.00
2022-12-11T23:43:34.848Z,29.38
2022-12-11T23:46:21.144Z,28.02
2022-12-11T23:48:54.789Z,29.73
2022-12-11T23:51:26.959Z,21.10
2022-12-11T23:54:00.003Z,27.73
2022-12-11T23:56:34.209Z,29.10
2022-12-11T23:59:04.379Z,28.02
